createdAt,value
2022-11-20T00:01:24.712Z,21.10
2022-11-20T00:03:56.461Z,22.43
2022-11-20T00:06:24.243Z,20.83
2022-11-20T00:08:51.688Z,19.23
2022-11-20T00:11:20.770Z,18.53
2022-11-20T00:13:49.494Z,18.33
2022-11-20T00:16:19.578Z,15.87
2022-11-20T00:18:46.741Z,17.43
2022-11-20T00:21:19.271Z,16.27
2022-11-20T00:23:46.904Z,18.93
2022-11-20T00:26:15.879Z,17.90
2022-11-20T00:28:45.394Z,20.23
2022-11-20T00:31:14.913Z,19.60
2022-11-20T00:33:43.530Z,19.77
2022-11-20T00:36:12.794Z,20.50
2022-11-20T00:38:39.809Z,21.57
2022-11-20T00:41:09.846Z,20.80
2022-11-20T00:43:37.357Z,20.30
2022-11-20T00:46:26.836Z,19.27
2022-11-20T00:48:53.853Z,18.97
2022-11-20T00:51:22.826Z,20.50
2022-11-20T00:53:50.311Z,20.73
2022-11-20T00:56:19.207Z,20.17
2022-11-20T00:58:48.346Z,19.93
2022-11-20T01:01:16.392Z,21.43
2022-11-20T01:03:46.055Z,19.27
2022-11-20T01:06:17.153Z,19.77
2022-11-20T01:08:44.623Z,19.43
2022-11-20T01:11:14.362Z,18.73
2022-11-20T01:13:42.527Z,18.83
2022-11-20T01:16:34.214Z,19.57
2022-11-20T01:19:04.332Z,20.03
2022-11-20T01:21:34.654Z,21.33
2022-11-20T01:24:02.639Z,19.67
2022-11-20T01:26:33.042Z,20.70
2022-11-20T01:29:01.244Z,18.87
2022-11-20T01:31:37.202Z,20.50
2022-11-20T01:34:10.407Z,19.90
2022-11-20T01:36:38.377Z,20.20
2022-11-20T01:39:08.068Z,20.07
2022-11-20T01:41:53.845Z,20.20
2022-11-20T01:44:23.675Z,20.37
2022-11-20T01:47:05.151Z,20.60
2022-11-20T01:49:39.934Z,20.30
2022-11-20T01:52:31.945Z,20.50
2022-11-20T01:55:13.693Z,23.33
2022-11-20T01:57:41.814Z,19.93
2022-11-20T02:00:22.449Z,20.13
2022-11-20T02:02:54.652Z,20.10
2022-11-20T02:05:47.474Z,19.47
2022-11-20T02:08:14.798Z,19.63
2022-11-20T02:10:41.752Z,19.33
2022-11-20T02:13:28.075Z,20.53
2022-11-20T02:15:55.188Z,20.10
2022-11-20T02:18:23.207Z,20.20
2022-11-20T02:21:02.085Z,21.17
2022-11-20T02:23:37.659Z,21.03
2022-11-20T02:26:07.901Z,20.27
2022-11-20T02:28:34.862Z,18.33
2022-11-20T02:31:02.362Z,18.10
2022-11-20T02:33:29.279Z,17.57
2022-11-20T02:35:56.184Z,16.90
2022-11-20T02:38:23.101Z,16.10
2022-11-20T02:40:55.131Z,16.27
2022-11-20T02:43:22.994Z,15.70
2022-11-20T02:45:50.571Z,15.73
2022-11-20T02:48:17.535Z,14.70
2022-11-20T02:50:44.434Z,16.40
2022-11-20T02:53:11.456Z,15.73
2022-11-20T02:55:38.523Z,16.00
2022-11-20T02:58:05.565Z,16.67
2022-11-20T03:00:33.044Z,16.33
2022-11-20T03:03:00.098Z,15.23
2022-11-20T03:05:27.063Z,15.10
2022-11-20T03:07:53.964Z,16.13
2022-11-20T03:10:20.831Z,14.50
2022-11-20T03:12:47.670Z,15.23
2022-11-20T03:15:14.677Z,15.43
2022-11-20T03:17:41.594Z,15.07
2022-11-20T03:20:10.142Z,13.97
2022-11-20T03:22:37.033Z,16.13
2022-11-20T03:25:04.448Z,15.60
2022-11-20T03:27:35.669Z,14.93
2022-11-20T03:30:02.602Z,16.40
2022-11-20T03:32:29.676Z,14.97
2022-11-20T03:34:56.502Z,15.40
2022-11-20T03:37:23.842Z,15.37
2022-11-20T03:39:50.797Z,14.67
2022-11-20T03:42:36.372Z,15.70
2022-11-20T03:45:03.620Z,15.47
2022-11-20T03:47:30.491Z,15.80
2022-11-20T03:49:57.331Z,15.77
2022-11-20T03:52:24.248Z,15.67
2022-11-20T03:54:51.233Z,15.67
2022-11-20T03:57:18.169Z,15.30
2022-11-20T03:59:45.100Z,15.60
2022-11-20T04:02:12.079Z,15.13
2022-11-20T04:04:38.963Z,15.10
2022-11-20T04:07:05.885Z,15.57
2022-11-20T04:09:32.793Z,15.13
2022-11-20T04:11:59.697Z,15.87
2022-11-20T04:14:26.557Z,14.87
2022-11-20T04:16:53.454Z,15.70
2022-11-20T04:19:20.743Z,16.43
2022-11-20T04:21:48.057Z,16.53
2022-11-20T04:24:14.900Z,16.23
2022-11-20T04:26:42.101Z,15.50
2022-11-20T04:29:12.243Z,15.63
2022-11-20T04:31:39.570Z,15.87
2022-11-20T04:34:08.179Z,15.23
2022-11-20T04:36:35.382Z,16.17
2022-11-20T04:39:05.280Z,16.50
2022-11-20T04:41:34.750Z,15.23
2022-11-20T04:44:04.368Z,14.20
2022-11-20T04:46:40.684Z,15.73
2022-11-20T04:49:08.635Z,14.73
2022-11-20T04:51:35.934Z,17.43
2022-11-20T04:54:03.113Z,15.87
2022-11-20T04:56:30.104Z,15.27
2022-11-20T04:59:00.504Z,14.57
2022-11-20T05:01:27.363Z,14.87
2022-11-20T05:03:56.578Z,16.10
2022-11-20T05:06:23.656Z,15.83
2022-11-20T05:08:51.065Z,15.60
2022-11-20T05:11:20.814Z,15.77
2022-11-20T05:13:48.166Z,16.53
2022-11-20T05:16:18.119Z,16.77
2022-11-20T05:18:45.405Z,15.60
2022-11-20T05:21:15.530Z,16.43
2022-11-20T05:23:43.386Z,15.20
2022-11-20T05:26:22.382Z,15.80
2022-11-20T05:28:50.701Z,16.37
2022-11-20T05:31:27.800Z,16.67
2022-11-20T05:33:57.008Z,16.50
2022-11-20T05:36:24.412Z,16.07
2022-11-20T05:38:52.906Z,16.60
2022-11-20T05:41:22.295Z,16.73
2022-11-20T05:43:51.747Z,16.40
2022-11-20T05:46:27.656Z,17.50
2022-11-20T05:48:56.756Z,16.67
2022-11-20T05:51:24.669Z,16.37
2022-11-20T05:53:51.835Z,16.33
2022-11-20T05:56:20.968Z,16.13
2022-11-20T05:58:48.537Z,15.90
2022-11-20T06:01:22.613Z,15.80
2022-11-20T06:03:51.664Z,16.77
2022-11-20T06:06:20.523Z,17.53
2022-11-20T06:08:48.582Z,15.40
2022-11-20T06:11:18.739Z,16.07
2022-11-20T06:13:46.384Z,16.77
2022-11-20T06:16:15.989Z,15.50
2022-11-20T06:18:42.973Z,15.77
2022-11-20T06:21:12.270Z,16.10
2022-11-20T06:23:39.689Z,16.60
2022-11-20T06:26:11.701Z,15.30
2022-11-20T06:28:39.272Z,16.97
2022-11-20T06:31:07.398Z,17.90
2022-11-20T06:33:34.565Z,20.73
2022-11-20T06:36:07.200Z,23.57
2022-11-20T06:38:37.319Z,22.53
2022-11-20T06:41:05.495Z,21.13
2022-11-20T06:43:32.467Z,20.67
2022-11-20T06:46:00.151Z,19.30
2022-11-20T06:48:28.390Z,21.23
2022-11-20T06:50:55.335Z,21.93
2022-11-20T06:53:23.612Z,23.67
2022-11-20T06:55:51.430Z,23.30
2022-11-20T06:58:19.225Z,24.10
2022-11-20T07:00:46.310Z,23.37
2022-11-20T07:03:13.859Z,25.43
2022-11-20T07:05:41.216Z,25.07
2022-11-20T07:08:08.632Z,30.63
2022-11-20T07:10:36.095Z,29.93
2022-11-20T07:13:03.009Z,28.87
2022-11-20T07:15:30.407Z,27.80
2022-11-20T07:18:00.498Z,32.00
2022-11-20T07:20:27.446Z,33.60
2022-11-20T07:22:58.922Z,30.90
2022-11-20T07:25:27.042Z,26.80
2022-11-20T07:27:57.506Z,27.17
2022-11-20T07:30:24.402Z,21.37
2022-11-20T07:32:54.904Z,23.00
2022-11-20T07:35:22.368Z,23.10
2022-11-20T07:37:49.668Z,25.70
2022-11-20T07:40:17.702Z,24.33
2022-11-20T07:42:52.278Z,23.07
2022-11-20T07:45:24.234Z,26.80
2022-11-20T07:47:51.755Z,24.27
2022-11-20T07:50:20.025Z,26.53
2022-11-20T07:52:47.129Z,33.70
2022-11-20T07:55:14.226Z,32.80
2022-11-20T07:57:41.233Z,31.00
2022-11-20T08:00:10.998Z,27.40
2022-11-20T08:02:41.969Z,25.07
2022-11-20T08:05:10.594Z,24.37
2022-11-20T08:07:42.269Z,23.00
2022-11-20T08:10:11.104Z,21.97
2022-11-20T08:13:03.105Z,19.70
2022-11-20T08:15:30.188Z,27.50
2022-11-20T08:18:30.058Z,20.07
2022-11-20T08:20:52.116Z,20.53
2022-11-20T08:23:19.150Z,18.73
2022-11-20T08:25:50.958Z,19.10
2022-11-20T08:28:21.228Z,26.87
2022-11-20T08:30:49.970Z,19.67
2022-11-20T08:33:18.302Z,20.03
2022-11-20T08:35:45.313Z,16.67
2022-11-20T08:38:12.462Z,23.17
2022-11-20T08:40:39.400Z,17.60
2022-11-20T08:43:06.311Z,21.43
2022-11-20T08:45:34.859Z,27.00
2022-11-20T08:48:04.146Z,22.50
2022-11-20T08:50:33.307Z,26.30
2022-11-20T08:53:04.957Z,23.90
2022-11-20T08:55:32.120Z,23.33
2022-11-20T08:57:59.036Z,19.63
2022-11-20T09:00:25.988Z,18.93
2022-11-20T09:02:53.386Z,21.87
2022-11-20T09:05:20.287Z,17.83
2022-11-20T09:07:47.185Z,12.50
2022-11-20T09:10:23.947Z,11.50
2022-11-20T09:12:52.855Z,12.20
2022-11-20T09:15:20.063Z,12.17
2022-11-20T09:18:16.435Z,11.83
2022-11-20T09:20:43.741Z,13.00
2022-11-20T09:23:10.632Z,12.87
2022-11-20T09:25:37.529Z,11.53
2022-11-20T09:28:04.546Z,11.52
2022-11-20T09:30:31.904Z,11.63
2022-11-20T09:32:58.839Z,10.38
2022-11-20T09:35:25.851Z,11.43
2022-11-20T09:37:52.780Z,11.05
2022-11-20T09:40:28.601Z,9.20
2022-11-20T09:43:15.303Z,8.98
2022-11-20T09:45:51.317Z,10.52
2022-11-20T09:48:34.860Z,9.50
2022-11-20T09:51:23.246Z,12.02
2022-11-20T09:54:35.183Z,11.52
2022-11-20T09:57:06.375Z,10.70
2022-11-20T09:59:47.665Z,10.32
2022-11-20T10:02:53.107Z,10.52
2022-11-20T10:05:32.717Z,9.55
2022-11-20T10:08:25.948Z,13.18
2022-11-20T10:11:14.550Z,10.82
2022-11-20T10:13:54.536Z,9.65
2022-11-20T10:17:04.676Z,9.32
2022-11-20T10:19:53.403Z,9.43
2022-11-20T10:22:48.156Z,9.55
2022-11-20T10:25:21.085Z,12.88
2022-11-20T10:28:12.681Z,14.60
2022-11-20T10:30:44.067Z,11.68
2022-11-20T10:33:22.123Z,10.85
2022-11-20T10:36:20.074Z,10.10
2022-11-20T10:39:05.029Z,23.40
2022-11-20T10:41:40.033Z,31.25
2022-11-20T10:44:36.418Z,11.27
2022-11-20T10:47:06.188Z,12.10
2022-11-20T10:49:35.533Z,11.55
2022-11-20T10:52:30.098Z,11.80
2022-11-20T10:55:05.960Z,12.13
2022-11-20T10:57:41.807Z,11.43
2022-11-20T11:00:11.872Z,11.63
2022-11-20T11:02:48.577Z,12.65
2022-11-20T11:05:23.340Z,11.48
2022-11-20T11:07:54.262Z,15.13
2022-11-20T11:10:24.183Z,14.38
2022-11-20T11:12:51.103Z,16.60
2022-11-20T11:15:28.699Z,12.57
2022-11-20T11:17:55.717Z,12.45
2022-11-20T11:20:25.418Z,11.25
2022-11-20T11:22:56.041Z,11.98
2022-11-20T11:25:34.719Z,11.45
2022-11-20T11:28:20.642Z,11.23
2022-11-20T11:30:50.147Z,13.23
2022-11-20T11:33:28.801Z,11.70
2022-11-20T11:36:04.852Z,12.07
2022-11-20T11:38:45.001Z,11.45
2022-11-20T11:41:29.135Z,11.57
2022-11-20T11:44:19.536Z,12.23
2022-11-20T11:46:57.446Z,12.35
2022-11-20T11:49:24.775Z,12.07
2022-11-20T11:52:18.589Z,12.57
2022-11-20T11:55:00.696Z,13.32
2022-11-20T11:57:55.425Z,12.13
2022-11-20T12:00:23.825Z,12.10
2022-11-20T12:03:10.434Z,12.53
2022-11-20T12:05:45.941Z,13.57
2022-11-20T12:08:24.687Z,15.03
2022-11-20T12:11:30.924Z,15.37
2022-11-20T12:14:15.959Z,14.63
2022-11-20T12:16:42.941Z,14.87
2022-11-20T12:19:13.718Z,15.27
2022-11-20T12:21:56.128Z,15.63
2022-11-20T12:24:56.900Z,16.63
2022-11-20T12:27:38.603Z,14.37
2022-11-20T12:30:17.592Z,15.97
2022-11-20T12:33:03.010Z,15.77
2022-11-20T12:35:55.178Z,16.87
2022-11-20T12:38:25.007Z,21.43
2022-11-20T12:41:03.063Z,20.73
2022-11-20T12:43:52.860Z,18.90
2022-11-20T12:46:41.012Z,19.27
2022-11-20T12:49:10.895Z,18.33
2022-11-20T12:52:15.425Z,16.60
2022-11-20T12:54:48.461Z,15.37
2022-11-20T12:57:15.306Z,17.40
2022-11-20T12:59:54.202Z,22.13
2022-11-20T13:02:58.564Z,25.93
2022-11-20T13:05:51.869Z,18.53
2022-11-20T13:08:29.299Z,24.13
2022-11-20T13:11:03.174Z,17.83
2022-11-20T13:13:54.535Z,16.37
2022-11-20T13:16:24.948Z,16.00
2022-11-20T13:18:52.068Z,15.80
2022-11-20T13:21:36.476Z,17.47
2022-11-20T13:24:08.274Z,15.50
2022-11-20T13:26:35.244Z,15.37
2022-11-20T13:29:19.300Z,14.17
2022-11-20T13:31:49.770Z,17.30
2022-11-20T13:34:27.999Z,16.40
2022-11-20T13:36:57.855Z,15.70
2022-11-20T13:39:26.968Z,16.03
2022-11-20T13:41:59.986Z,15.93
2022-11-20T13:44:39.129Z,20.73
2022-11-20T13:47:24.215Z,17.27
2022-11-20T13:49:54.111Z,16.97
2022-11-20T13:52:52.248Z,17.83
2022-11-20T13:55:36.220Z,29.23
2022-11-20T13:58:20.669Z,28.03
2022-11-20T14:00:56.463Z,25.37
2022-11-20T14:03:44.089Z,22.90
2022-11-20T14:06:32.376Z,20.63
2022-11-20T14:09:00.593Z,21.13
2022-11-20T14:11:29.631Z,21.07
2022-11-20T14:13:58.551Z,21.47
2022-11-20T14:16:26.983Z,20.83
2022-11-20T14:18:54.366Z,18.17
2022-11-20T14:21:30.450Z,20.33
2022-11-20T14:24:07.788Z,20.67
2022-11-20T14:26:35.071Z,19.73
2022-11-20T14:29:02.286Z,18.30
2022-11-20T14:31:29.701Z,18.77
2022-11-20T14:33:57.559Z,18.50
2022-11-20T14:36:27.068Z,20.40
2022-11-20T14:38:54.764Z,18.77
2022-11-20T14:41:23.897Z,19.43
2022-11-20T14:44:02.822Z,18.60
2022-11-20T14:46:32.773Z,20.00
2022-11-20T14:49:04.988Z,22.53
2022-11-20T14:51:42.724Z,18.63
2022-11-20T14:54:23.278Z,17.67
2022-11-20T14:56:57.112Z,17.03
2022-11-20T14:59:32.370Z,22.03
2022-11-20T15:02:04.602Z,19.97
2022-11-20T15:04:31.686Z,17.43
2022-11-20T15:07:00.780Z,17.93
2022-11-20T15:09:27.888Z,17.20
2022-11-20T15:11:58.774Z,20.50
2022-11-20T15:14:28.185Z,19.23
2022-11-20T15:16:56.159Z,18.47
2022-11-20T15:19:27.724Z,20.63
2022-11-20T15:21:54.744Z,21.30
2022-11-20T15:24:22.020Z,25.87
2022-11-20T15:26:49.240Z,22.57
2022-11-20T15:29:21.820Z,18.57
2022-11-20T15:31:48.736Z,21.20
2022-11-20T15:34:16.689Z,22.47
2022-11-20T15:36:44.737Z,25.27
2022-11-20T15:39:12.570Z,24.17
2022-11-20T15:41:40.112Z,19.17
2022-11-20T15:44:07.274Z,24.10
2022-11-20T15:46:39.496Z,21.13
2022-11-20T15:49:10.888Z,17.97
2022-11-20T15:51:39.890Z,18.77
2022-11-20T15:54:14.422Z,19.30
2022-11-20T15:56:41.424Z,18.33
2022-11-20T15:59:08.647Z,18.73
2022-11-20T16:01:36.084Z,18.50
2022-11-20T16:04:03.326Z,18.57
2022-11-20T16:06:30.249Z,18.33
2022-11-20T16:08:57.230Z,19.03
2022-11-20T16:11:24.173Z,17.13
2022-11-20T16:14:09.507Z,17.37
2022-11-20T16:16:38.637Z,18.10
2022-11-20T16:19:06.097Z,18.27
2022-11-20T16:21:33.439Z,17.53
2022-11-20T16:24:01.698Z,29.33
2022-11-20T16:26:29.158Z,19.23
2022-11-20T16:28:56.826Z,19.47
2022-11-20T16:31:23.869Z,21.60
2022-11-20T16:33:55.551Z,19.90
2022-11-20T16:36:24.316Z,19.33
2022-11-20T16:39:02.827Z,20.27
2022-11-20T16:41:32.956Z,19.17
2022-11-20T16:44:02.250Z,19.80
2022-11-20T16:46:31.752Z,19.23
2022-11-20T16:49:04.148Z,20.27
2022-11-20T16:51:34.233Z,21.23
2022-11-20T16:54:05.665Z,22.03
2022-11-20T16:56:33.227Z,24.00
2022-11-20T16:59:01.180Z,23.80
2022-11-20T17:01:29.355Z,24.17
2022-11-20T17:04:07.135Z,25.33
2022-11-20T17:06:40.313Z,25.20
2022-11-20T17:09:11.099Z,25.43
2022-11-20T17:11:38.502Z,24.20
2022-11-20T17:14:07.450Z,25.93
2022-11-20T17:16:35.713Z,27.40
2022-11-20T17:19:03.921Z,27.33
2022-11-20T17:21:31.783Z,34.03
2022-11-20T17:24:05.561Z,28.50
2022-11-20T17:26:33.241Z,26.83
2022-11-20T17:29:24.196Z,35.13
2022-11-20T17:31:51.411Z,30.40
2022-11-20T17:34:18.489Z,30.50
2022-11-20T17:36:46.457Z,34.47
2022-11-20T17:39:17.958Z,32.97
2022-11-20T17:41:45.210Z,32.23
2022-11-20T17:44:13.476Z,31.07
2022-11-20T17:46:40.745Z,31.87
2022-11-20T17:49:07.740Z,30.13
2022-11-20T17:51:35.494Z,34.10
2022-11-20T17:54:04.990Z,32.13
2022-11-20T17:56:54.165Z,35.00
2022-11-20T17:59:21.507Z,34.77
2022-11-20T18:01:48.770Z,31.90
2022-11-20T18:04:16.823Z,33.07
2022-11-20T18:06:44.076Z,36.67
2022-11-20T18:09:11.636Z,34.80
2022-11-20T18:11:40.229Z,37.43
2022-11-20T18:14:28.699Z,35.80
2022-11-20T18:16:58.538Z,35.10
2022-11-20T18:19:32.130Z,32.93
2022-11-20T18:22:01.585Z,33.83
2022-11-20T18:24:28.842Z,34.73
2022-11-20T18:26:57.642Z,34.43
2022-11-20T18:29:25.556Z,33.43
2022-11-20T18:31:53.414Z,34.17
2022-11-20T18:34:20.764Z,33.50
2022-11-20T18:36:47.757Z,35.20
2022-11-20T18:39:15.257Z,34.10
2022-11-20T18:42:01.617Z,32.60
2022-11-20T18:44:49.670Z,34.57
2022-11-20T18:47:19.283Z,34.23
2022-11-20T18:49:51.297Z,33.87
2022-11-20T18:52:23.882Z,32.67
2022-11-20T18:54:51.217Z,32.30
2022-11-20T18:57:19.982Z,32.70
2022-11-20T18:59:47.331Z,32.10
2022-11-20T19:02:16.407Z,34.63
2022-11-20T19:04:43.550Z,34.90
2022-11-20T19:07:14.221Z,36.77
2022-11-20T19:09:43.082Z,34.70
2022-11-20T19:12:11.662Z,36.60
2022-11-20T19:14:38.836Z,36.87
2022-11-20T19:17:06.882Z,51.73
2022-11-20T19:19:37.190Z,44.43
2022-11-20T19:22:04.435Z,54.87
2022-11-20T19:24:31.421Z,37.20
2022-11-20T19:26:58.407Z,0.40
2022-11-20T19:29:26.851Z,0.40
2022-11-20T19:31:53.981Z,0.40
2022-11-20T19:34:21.229Z,0.40
2022-11-20T19:36:48.233Z,0.40
2022-11-20T19:39:15.441Z,0.40
2022-11-20T19:41:43.314Z,0.40
2022-11-20T19:44:15.398Z,0.40
2022-11-20T19:46:42.501Z,0.40
2022-11-20T19:49:12.309Z,0.40
2022-11-20T19:51:45.578Z,0.40
2022-11-20T19:54:12.982Z,0.60
2022-11-20T19:56:39.958Z,0.47
2022-11-20T19:59:06.895Z,0.40
2022-11-20T20:01:34.002Z,0.40
2022-11-20T20:04:05.542Z,0.50
2022-11-20T20:06:34.785Z,0.40
2022-11-20T20:09:05.154Z,0.40
2022-11-20T20:11:34.121Z,0.40
2022-11-20T20:14:03.860Z,0.40
2022-11-20T20:16:31.178Z,0.40
2022-11-20T20:19:01.546Z,0.40
2022-11-20T20:21:30.528Z,0.40
2022-11-20T20:23:58.452Z,0.40
2022-11-20T20:26:27.264Z,0.40
2022-11-20T20:28:55.001Z,0.40
2022-11-20T20:31:24.558Z,0.40
2022-11-20T20:33:51.695Z,0.40
2022-11-20T20:36:20.088Z,0.40
2022-11-20T20:38:47.710Z,0.40
2022-11-20T20:41:18.485Z,0.40
2022-11-20T20:44:03.959Z,0.40
2022-11-20T20:46:30.959Z,0.40
2022-11-20T20:48:58.064Z,0.40
2022-11-20T20:51:25.128Z,0.40
2022-11-20T20:53:52.072Z,0.40
2022-11-20T20:56:19.340Z,0.40
2022-11-20T20:58:46.323Z,0.40
2022-11-20T21:01:16.569Z,0.50
2022-11-20T21:03:43.728Z,0.40
2022-11-20T21:06:11.338Z,0.73
2022-11-20T21:08:40.616Z,0.40
2022-11-20T21:11:14.035Z,0.40
2022-11-20T21:13:42.934Z,0.40
2022-11-20T21:16:11.338Z,0.40
2022-11-20T21:18:38.454Z,0.70
2022-11-20T21:21:25.716Z,0.40
2022-11-20T21:23:53.659Z,0.40
2022-11-20T21:26:20.981Z,0.40
2022-11-20T21:28:48.424Z,0.40
2022-11-20T21:31:27.356Z,0.40
2022-11-20T21:33:56.591Z,0.50
2022-11-20T21:36:25.852Z,0.40
2022-11-20T21:38:54.893Z,0.40
2022-11-20T21:41:22.797Z,0.40
2022-11-20T21:44:09.467Z,0.40
2022-11-20T21:46:40.641Z,0.40
2022-11-20T21:49:08.386Z,0.40
2022-11-20T21:51:35.691Z,0.40
2022-11-20T21:54:02.728Z,5.50
2022-11-20T21:56:29.826Z,0.40
2022-11-20T21:58:56.790Z,0.40
2022-11-20T22:01:26.489Z,0.40
2022-11-20T22:03:57.181Z,0.40
2022-11-20T22:06:30.220Z,0.40
2022-11-20T22:08:57.137Z,0.40
2022-11-20T22:11:24.163Z,0.40
2022-11-20T22:14:09.694Z,0.43
2022-11-20T22:16:37.984Z,0.40
2022-11-20T22:19:06.065Z,0.40
2022-11-20T22:21:34.103Z,0.40
2022-11-20T22:24:01.594Z,0.40
2022-11-20T22:26:30.799Z,0.40
2022-11-20T22:28:59.095Z,1.23
2022-11-20T22:31:29.285Z,0.40
2022-11-20T22:33:57.567Z,0.40
2022-11-20T22:36:28.348Z,0.60
2022-11-20T22:38:55.525Z,0.40
2022-11-20T22:41:27.354Z,0.70
2022-11-20T22:43:59.122Z,0.40
2022-11-20T22:46:27.995Z,0.40
2022-11-20T22:49:00.435Z,0.40
2022-11-20T22:51:32.811Z,0.40
2022-11-20T22:54:03.378Z,0.40
2022-11-20T22:56:30.869Z,0.40
2022-11-20T22:58:58.186Z,0.40
2022-11-20T23:01:33.431Z,0.40
2022-11-20T23:04:02.694Z,8.40
2022-11-20T23:06:30.690Z,0.40
2022-11-20T23:08:57.617Z,0.40
2022-11-20T23:11:27.274Z,0.40
2022-11-20T23:14:05.545Z,0.40
2022-11-20T23:16:33.450Z,0.40
2022-11-20T23:19:03.660Z,0.40
2022-11-20T23:21:30.653Z,0.40
2022-11-20T23:23:58.714Z,0.40
2022-11-20T23:26:28.628Z,0.40
2022-11-20T23:28:57.689Z,0.40
2022-11-20T23:31:25.570Z,0.40
2022-11-20T23:33:52.829Z,0.40
2022-11-20T23:36:19.931Z,0.40
2022-11-20T23:38:46.939Z,0.40
2022-11-20T23:41:14.525Z,0.40
2022-11-20T23:43:41.611Z,0.40
2022-11-20T23:46:13.761Z,0.40
2022-11-20T23:48:44.919Z,0.40
2022-11-20T23:51:12.064Z,0.40
2022-11-20T23:53:39.311Z,6.10
2022-11-20T23:56:06.579Z,0.40
2022-11-20T23:58:36.609Z,0.40
